sensor_id;sensor_type;location;lat;lon;timestamp;P1;durP1;ratioP1;P2;durP2;ratioP2
22851;SDS011;11592;45.460;9.240;2022-10-31T00:01:20;23.40;;;11.23;;
22851;SDS011;11592;45.460;9.240;2022-10-31T00:03:52;22.25;;;10.65;;
22851;SDS011;11592;45.460;9.240;2022-10-31T00:06:19;22.58;;;10.38;;
22851;SDS011;11592;45.460;9.240;2022-10-31T00:08:51;22.10;;;10.75;;
22851;SDS011;11592;45.460;9.240;2022-10-31T00:11:21;25.15;;;11.55;;
22851;SDS011;11592;45.460;9.240;2022-10-31T00:13:48;22.63;;;11.23;;
22851;SDS011;11592;45.460;9.240;2022-10-31T00:16:16;22.83;;;11.35;;
22851;SDS011;11592;45.460;9.240;2022-10-31T00:18:47;20.95;;;11.00;;
22851;SDS011;11592;45.460;9.240;2022-10-31T00:21:15;23.08;;;10.35;;
22851;SDS011;11592;45.460;9.240;2022-10-31T00:23:42;22.88;;;11.10;;
22851;SDS011;11592;45.460;9.240;2022-10-31T00:26:09;22.10;;;11.13;;
22851;SDS011;11592;45.460;9.240;2022-10-31T00:28:36;22.80;;;11.10;;
22851;SDS011;11592;45.460;9.240;2022-10-31T00:31:03;20.88;;;10.98;;
22851;SDS011;11592;45.460;9.240;2022-10-31T00:33:35;19.95;;;10.35;;
22851;SDS011;11592;45.460;9.240;2022-10-31T00:36:04;23.10;;;10.18;;
22851;SDS011;11592;45.460;9.240;2022-10-31T00:38:32;22.65;;;10.95;;
22851;SDS011;11592;45.460;9.240;2022-10-31T00:40:59;17.60;;;9.48;;
22851;SDS011;11592;45.460;9.240;2022-10-31T00:43:26;21.30;;;10.68;;
22851;SDS011;11592;45.460;9.240;2022-10-31T00:45:53;18.98;;;10.15;;
22851;SDS011;11592;45.460;9.240;2022-10-31T00:48:20;21.02;;;10.60;;
22851;SDS011;11592;45.460;9.240;2022-10-31T00:50:46;24.55;;;10.10;;
22851;SDS011;11592;45.460;9.240;2022-10-31T00:53:13;28.90;;;10.27;;
22851;SDS011;11592;45.460;9.240;2022-10-31T00:55:40;24.95;;;9.93;;
22851;SDS011;11592;45.460;9.240;2022-10-31T00:58:07;18.65;;;10.18;;
22851;SDS011;11592;45.460;9.240;2022-10-31T01:00:34;19.65;;;10.48;;
22851;SDS011;11592;45.460;9.240;2022-10-31T01:03:00;20.05;;;9.85;;
22851;SDS011;11592;45.460;9.240;2022-10-31T01:05:28;17.58;;;9.57;;
22851;SDS011;11592;45.460;9.240;2022-10-31T01:07:54;18.70;;;9.60;;
22851;SDS011;11592;45.460;9.240;2022-10-31T01:10:21;21.83;;;9.70;;
22851;SDS011;11592;45.460;9.240;2022-10-31T01:12:48;23.42;;;11.27;;
22851;SDS011;11592;45.460;9.240;2022-10-31T01:15:20;22.65;;;10.38;;
22851;SDS011;11592;45.460;9.240;2022-10-31T01:17:48;24.00;;;10.73;;
22851;SDS011;11592;45.460;9.240;2022-10-31T01:20:16;19.42;;;10.82;;
22851;SDS011;11592;45.460;9.240;2022-10-31T01:22:43;19.48;;;10.02;;
22851;SDS011;11592;45.460;9.240;2022-10-31T01:25:10;20.13;;;9.77;;
22851;SDS011;11592;45.460;9.240;2022-10-31T01:27:37;21.55;;;10.45;;
22851;SDS011;11592;45.460;9.240;2022-10-31T01:30:04;18.70;;;9.80;;
22851;SDS011;11592;45.460;9.240;2022-10-31T01:32:32;23.13;;;10.15;;
22851;SDS011;11592;45.460;9.240;2022-10-31T01:34:58;20.30;;;10.07;;
22851;SDS011;11592;45.460;9.240;2022-10-31T01:37:25;22.20;;;10.30;;
22851;SDS011;11592;45.460;9.240;2022-10-31T01:39:52;19.58;;;10.52;;
22851;SDS011;11592;45.460;9.240;2022-10-31T01:42:19;18.25;;;10.15;;
22851;SDS011;11592;45.460;9.240;2022-10-31T01:44:50;17.48;;;9.35;;
22851;SDS011;11592;45.460;9.240;2022-10-31T01:47:20;21.85;;;9.70;;
22851;SDS011;11592;45.460;9.240;2022-10-31T01:49:54;21.45;;;9.73;;
22851;SDS011;11592;45.460;9.240;2022-10-31T01:52:44;18.42;;;10.00;;
22851;SDS011;11592;45.460;9.240;2022-10-31T01:55:15;18.17;;;9.70;;
22851;SDS011;11592;45.460;9.240;2022-10-31T01:58:01;24.00;;;9.45;;
22851;SDS011;11592;45.460;9.240;2022-10-31T02:00:51;19.38;;;10.38;;
22851;SDS011;11592;45.460;9.240;2022-10-31T02:03:31;25.10;;;9.35;;
22851;SDS011;11592;45.460;9.240;2022-10-31T02:05:59;17.33;;;10.20;;
22851;SDS011;11592;45.460;9.240;2022-10-31T02:08:27;28.85;;;10.65;;
22851;SDS011;11592;45.460;9.240;2022-10-31T02:10:59;20.17;;;9.77;;
22851;SDS011;11592;45.460;9.240;2022-10-31T02:13:28;21.58;;;10.25;;
22851;SDS011;11592;45.460;9.240;2022-10-31T02:15:56;20.67;;;10.13;;
22851;SDS011;11592;45.460;9.240;2022-10-31T02:18:25;28.42;;;10.77;;
22851;SDS011;11592;45.460;9.240;2022-10-31T02:31:59;19.23;;;9.25;;
22851;SDS011;11592;45.460;9.240;2022-10-31T02:45:26;20.02;;;9.80;;
22851;SDS011;11592;45.460;9.240;2022-10-31T02:48:09;17.90;;;8.80;;
22851;SDS011;11592;45.460;9.240;2022-10-31T02:50:42;20.15;;;10.77;;
22851;SDS011;11592;45.460;9.240;2022-10-31T02:53:18;19.50;;;9.20;;
22851;SDS011;11592;45.460;9.240;2022-10-31T02:56:08;20.88;;;9.60;;
22851;SDS011;11592;45.460;9.240;2022-10-31T02:58:36;23.73;;;10.77;;
22851;SDS011;11592;45.460;9.240;2022-10-31T03:01:20;15.82;;;8.95;;
22851;SDS011;11592;45.460;9.240;2022-10-31T03:12:48;19.90;;;9.55;;
22851;SDS011;11592;45.460;9.240;2022-10-31T03:15:32;21.30;;;10.18;;
22851;SDS011;11592;45.460;9.240;2022-10-31T03:18:03;18.45;;;9.35;;
22851;SDS011;11592;45.460;9.240;2022-10-31T03:20:38;22.43;;;9.97;;
22851;SDS011;11592;45.460;9.240;2022-10-31T03:23:11;19.95;;;9.13;;
22851;SDS011;11592;45.460;9.240;2022-10-31T03:25:40;20.95;;;10.10;;
22851;SDS011;11592;45.460;9.240;2022-10-31T03:28:09;17.90;;;9.90;;
22851;SDS011;11592;45.460;9.240;2022-10-31T03:30:41;19.98;;;9.85;;
22851;SDS011;11592;45.460;9.240;2022-10-31T03:33:11;18.75;;;10.10;;
22851;SDS011;11592;45.460;9.240;2022-10-31T03:35:42;19.95;;;9.98;;
22851;SDS011;11592;45.460;9.240;2022-10-31T03:38:12;22.77;;;9.73;;
22851;SDS011;11592;45.460;9.240;2022-10-31T03:40:40;22.65;;;10.02;;
22851;SDS011;11592;45.460;9.240;2022-10-31T03:43:12;20.48;;;9.70;;
22851;SDS011;11592;45.460;9.240;2022-10-31T03:45:45;20.85;;;9.63;;
22851;SDS011;11592;45.460;9.240;2022-10-31T03:48:13;22.15;;;10.32;;
22851;SDS011;11592;45.460;9.240;2022-10-31T03:53:30;15.80;;;9.15;;
22851;SDS011;11592;45.460;9.240;2022-10-31T03:58:38;15.95;;;9.68;;
22851;SDS011;11592;45.460;9.240;2022-10-31T04:01:11;19.27;;;10.98;;
22851;SDS011;11592;45.460;9.240;2022-10-31T04:03:42;17.80;;;9.20;;
22851;SDS011;11592;45.460;9.240;2022-10-31T04:06:10;20.48;;;9.40;;
22851;SDS011;11592;45.460;9.240;2022-10-31T04:08:48;19.73;;;9.68;;
22851;SDS011;11592;45.460;9.240;2022-10-31T04:11:23;18.85;;;9.55;;
22851;SDS011;11592;45.460;9.240;2022-10-31T04:13:53;17.70;;;9.32;;
22851;SDS011;11592;45.460;9.240;2022-10-31T04:16:22;20.17;;;8.80;;
22851;SDS011;11592;45.460;9.240;2022-10-31T04:18:50;20.27;;;9.63;;
22851;SDS011;11592;45.460;9.240;2022-10-31T04:21:18;21.35;;;10.02;;
22851;SDS011;11592;45.460;9.240;2022-10-31T04:23:44;18.80;;;9.38;;
22851;SDS011;11592;45.460;9.240;2022-10-31T04:26:11;17.23;;;9.27;;
22851;SDS011;11592;45.460;9.240;2022-10-31T04:28:38;16.70;;;9.20;;
22851;SDS011;11592;45.460;9.240;2022-10-31T04:31:05;21.58;;;9.75;;
22851;SDS011;11592;45.460;9.240;2022-10-31T04:33:32;26.42;;;9.85;;
22851;SDS011;11592;45.460;9.240;2022-10-31T04:35:58;20.13;;;10.07;;
22851;SDS011;11592;45.460;9.240;2022-10-31T04:38:25;21.77;;;9.80;;
22851;SDS011;11592;45.460;9.240;2022-10-31T04:40:52;25.98;;;11.05;;
22851;SDS011;11592;45.460;9.240;2022-10-31T04:43:18;24.00;;;10.98;;
22851;SDS011;11592;45.460;9.240;2022-10-31T04:45:50;21.65;;;10.38;;
22851;SDS011;11592;45.460;9.240;2022-10-31T04:48:17;19.88;;;10.07;;
22851;SDS011;11592;45.460;9.240;2022-10-31T04:50:43;17.13;;;9.55;;
22851;SDS011;11592;45.460;9.240;2022-10-31T04:53:11;18.33;;;9.70;;
22851;SDS011;11592;45.460;9.240;2022-10-31T04:55:37;15.23;;;8.90;;
22851;SDS011;11592;45.460;9.240;2022-10-31T04:58:04;20.00;;;9.85;;
22851;SDS011;11592;45.460;9.240;2022-10-31T05:00:31;21.60;;;10.40;;
22851;SDS011;11592;45.460;9.240;2022-10-31T05:02:58;20.95;;;10.43;;
22851;SDS011;11592;45.460;9.240;2022-10-31T05:05:27;18.73;;;9.63;;
22851;SDS011;11592;45.460;9.240;2022-10-31T05:07:56;17.42;;;10.02;;
22851;SDS011;11592;45.460;9.240;2022-10-31T05:10:23;19.05;;;10.02;;
22851;SDS011;11592;45.460;9.240;2022-10-31T05:12:56;22.52;;;10.77;;
22851;SDS011;11592;45.460;9.240;2022-10-31T05:15:25;22.10;;;11.73;;
22851;SDS011;11592;45.460;9.240;2022-10-31T05:17:53;22.45;;;10.57;;
22851;SDS011;11592;45.460;9.240;2022-10-31T05:20:21;21.85;;;10.68;;
22851;SDS011;11592;45.460;9.240;2022-10-31T05:22:51;22.45;;;10.23;;
22851;SDS011;11592;45.460;9.240;2022-10-31T05:25:20;19.65;;;10.45;;
22851;SDS011;11592;45.460;9.240;2022-10-31T05:27:48;19.30;;;10.63;;
22851;SDS011;11592;45.460;9.240;2022-10-31T05:30:17;20.38;;;9.88;;
22851;SDS011;11592;45.460;9.240;2022-10-31T05:32:50;20.10;;;10.18;;
22851;SDS011;11592;45.460;9.240;2022-10-31T05:35:18;22.17;;;10.57;;
22851;SDS011;11592;45.460;9.240;2022-10-31T05:37:46;22.38;;;11.10;;
22851;SDS011;11592;45.460;9.240;2022-10-31T05:40:14;24.88;;;11.18;;
22851;SDS011;11592;45.460;9.240;2022-10-31T05:42:42;21.55;;;10.75;;
22851;SDS011;11592;45.460;9.240;2022-10-31T05:45:10;19.85;;;10.70;;
22851;SDS011;11592;45.460;9.240;2022-10-31T05:47:41;22.48;;;11.13;;
22851;SDS011;11592;45.460;9.240;2022-10-31T05:50:09;21.55;;;10.43;;
22851;SDS011;11592;45.460;9.240;2022-10-31T05:52:36;22.08;;;11.35;;
22851;SDS011;11592;45.460;9.240;2022-10-31T05:55:03;20.48;;;10.82;;
22851;SDS011;11592;45.460;9.240;2022-10-31T05:57:31;22.33;;;11.20;;
22851;SDS011;11592;45.460;9.240;2022-10-31T05:59:58;20.13;;;11.02;;
22851;SDS011;11592;45.460;9.240;2022-10-31T06:02:25;19.92;;;11.05;;
22851;SDS011;11592;45.460;9.240;2022-10-31T06:04:52;21.48;;;11.40;;
22851;SDS011;11592;45.460;9.240;2022-10-31T06:07:19;24.33;;;11.73;;
22851;SDS011;11592;45.460;9.240;2022-10-31T06:09:46;22.38;;;11.65;;
22851;SDS011;11592;45.460;9.240;2022-10-31T06:12:13;28.38;;;12.52;;
22851;SDS011;11592;45.460;9.240;2022-10-31T06:14:39;24.52;;;11.00;;
22851;SDS011;11592;45.460;9.240;2022-10-31T06:17:06;20.90;;;11.68;;
22851;SDS011;11592;45.460;9.240;2022-10-31T06:19:33;21.52;;;11.32;;
22851;SDS011;11592;45.460;9.240;2022-10-31T06:22:00;24.00;;;12.07;;
22851;SDS011;11592;45.460;9.240;2022-10-31T06:24:26;24.60;;;11.82;;
22851;SDS011;11592;45.460;9.240;2022-10-31T06:26:53;23.60;;;11.93;;
22851;SDS011;11592;45.460;9.240;2022-10-31T06:29:20;24.08;;;12.18;;
22851;SDS011;11592;45.460;9.240;2022-10-31T06:31:47;23.83;;;11.52;;
22851;SDS011;11592;45.460;9.240;2022-10-31T06:34:13;24.02;;;12.15;;
22851;SDS011;11592;45.460;9.240;2022-10-31T06:36:40;22.48;;;11.95;;
22851;SDS011;11592;45.460;9.240;2022-10-31T06:39:08;22.65;;;11.60;;
22851;SDS011;11592;45.460;9.240;2022-10-31T06:41:35;25.55;;;11.80;;
22851;SDS011;11592;45.460;9.240;2022-10-31T06:44:02;23.50;;;12.10;;
22851;SDS011;11592;45.460;9.240;2022-10-31T06:46:34;30.75;;;12.68;;
22851;SDS011;11592;45.460;9.240;2022-10-31T06:49:00;27.88;;;12.57;;
22851;SDS011;11592;45.460;9.240;2022-10-31T06:51:27;21.35;;;12.18;;
22851;SDS011;11592;45.460;9.240;2022-10-31T06:53:54;24.38;;;12.68;;
22851;SDS011;11592;45.460;9.240;2022-10-31T06:56:20;23.73;;;13.38;;
22851;SDS011;11592;45.460;9.240;2022-10-31T06:58:47;28.77;;;13.32;;
22851;SDS011;11592;45.460;9.240;2022-10-31T07:01:14;28.10;;;13.07;;
22851;SDS011;11592;45.460;9.240;2022-10-31T07:03:41;29.35;;;12.75;;
22851;SDS011;11592;45.460;9.240;2022-10-31T07:06:07;25.98;;;13.63;;
22851;SDS011;11592;45.460;9.240;2022-10-31T07:08:34;29.83;;;13.57;;
22851;SDS011;11592;45.460;9.240;2022-10-31T07:11:01;24.40;;;13.52;;
22851;SDS011;11592;45.460;9.240;2022-10-31T07:13:27;22.83;;;13.18;;
22851;SDS011;11592;45.460;9.240;2022-10-31T07:15:59;27.73;;;13.98;;
22851;SDS011;11592;45.460;9.240;2022-10-31T07:18:27;23.63;;;13.38;;
22851;SDS011;11592;45.460;9.240;2022-10-31T07:20:54;25.15;;;13.95;;
22851;SDS011;11592;45.460;9.240;2022-10-31T07:23:21;27.95;;;14.18;;
22851;SDS011;11592;45.460;9.240;2022-10-31T07:25:48;27.60;;;13.55;;
22851;SDS011;11592;45.460;9.240;2022-10-31T07:28:20;28.73;;;14.07;;
22851;SDS011;11592;45.460;9.240;2022-10-31T07:30:53;26.35;;;14.45;;
22851;SDS011;11592;45.460;9.240;2022-10-31T07:33:21;26.45;;;14.63;;
22851;SDS011;11592;45.460;9.240;2022-10-31T07:35:49;28.92;;;15.48;;
22851;SDS011;11592;45.460;9.240;2022-10-31T07:38:16;29.35;;;15.35;;
22851;SDS011;11592;45.460;9.240;2022-10-31T07:40:42;32.65;;;15.43;;
22851;SDS011;11592;45.460;9.240;2022-10-31T07:43:10;35.10;;;15.85;;
22851;SDS011;11592;45.460;9.240;2022-10-31T07:45:39;33.35;;;15.30;;
22851;SDS011;11592;45.460;9.240;2022-10-31T07:48:06;29.98;;;16.23;;
22851;SDS011;11592;45.460;9.240;2022-10-31T07:50:33;31.83;;;16.80;;
22851;SDS011;11592;45.460;9.240;2022-10-31T07:53:01;30.77;;;15.77;;
22851;SDS011;11592;45.460;9.240;2022-10-31T07:55:31;32.38;;;16.27;;
22851;SDS011;11592;45.460;9.240;2022-10-31T07:58:02;33.75;;;16.67;;
22851;SDS011;11592;45.460;9.240;2022-10-31T08:00:34;34.92;;;17.17;;
22851;SDS011;11592;45.460;9.240;2022-10-31T08:03:03;30.67;;;17.27;;
22851;SDS011;11592;45.460;9.240;2022-10-31T08:05:31;34.85;;;17.42;;
22851;SDS011;11592;45.460;9.240;2022-10-31T08:07:59;34.40;;;17.23;;
22851;SDS011;11592;45.460;9.240;2022-10-31T08:10:27;39.75;;;17.55;;
22851;SDS011;11592;45.460;9.240;2022-10-31T08:13:01;37.95;;;18.25;;
22851;SDS011;11592;45.460;9.240;2022-10-31T08:15:36;37.38;;;16.88;;
22851;SDS011;11592;45.460;9.240;2022-10-31T08:18:05;31.50;;;17.02;;
22851;SDS011;11592;45.460;9.240;2022-10-31T08:20:35;35.17;;;17.50;;
22851;SDS011;11592;45.460;9.240;2022-10-31T08:23:03;36.78;;;16.40;;
22851;SDS011;11592;45.460;9.240;2022-10-31T08:25:32;34.78;;;17.73;;
22851;SDS011;11592;45.460;9.240;2022-10-31T08:28:04;32.03;;;16.88;;
22851;SDS011;11592;45.460;9.240;2022-10-31T08:30:32;29.73;;;16.58;;
22851;SDS011;11592;45.460;9.240;2022-10-31T08:33:02;33.88;;;18.50;;
22851;SDS011;11592;45.460;9.240;2022-10-31T08:35:31;31.23;;;17.35;;
22851;SDS011;11592;45.460;9.240;2022-10-31T08:37:58;35.67;;;17.83;;
22851;SDS011;11592;45.460;9.240;2022-10-31T08:40:26;36.10;;;17.10;;
22851;SDS011;11592;45.460;9.240;2022-10-31T08:42:55;34.25;;;17.88;;
22851;SDS011;11592;45.460;9.240;2022-10-31T08:45:23;32.35;;;16.95;;
22851;SDS011;11592;45.460;9.240;2022-10-31T08:47:50;31.80;;;16.67;;
22851;SDS011;11592;45.460;9.240;2022-10-31T08:50:17;33.42;;;18.25;;
22851;SDS011;11592;45.460;9.240;2022-10-31T08:52:44;36.03;;;18.73;;
22851;SDS011;11592;45.460;9.240;2022-10-31T08:55:30;27.45;;;16.48;;
22851;SDS011;11592;45.460;9.240;2022-10-31T08:57:58;34.38;;;16.83;;
22851;SDS011;11592;45.460;9.240;2022-10-31T09:00:26;33.50;;;17.17;;
22851;SDS011;11592;45.460;9.240;2022-10-31T09:02:56;39.08;;;17.73;;
22851;SDS011;11592;45.460;9.240;2022-10-31T09:05:27;31.42;;;18.60;;
22851;SDS011;11592;45.460;9.240;2022-10-31T09:07:55;40.75;;;19.33;;
22851;SDS011;11592;45.460;9.240;2022-10-31T09:10:27;31.33;;;17.20;;
22851;SDS011;11592;45.460;9.240;2022-10-31T09:12:55;31.88;;;17.27;;
22851;SDS011;11592;45.460;9.240;2022-10-31T09:15:27;29.30;;;16.52;;
22851;SDS011;11592;45.460;9.240;2022-10-31T09:17:54;31.23;;;16.60;;
22851;SDS011;11592;45.460;9.240;2022-10-31T09:20:21;29.40;;;15.95;;
22851;SDS011;11592;45.460;9.240;2022-10-31T09:22:54;30.60;;;16.42;;
22851;SDS011;11592;45.460;9.240;2022-10-31T09:25:22;32.30;;;17.02;;
22851;SDS011;11592;45.460;9.240;2022-10-31T09:27:49;33.42;;;15.98;;
22851;SDS011;11592;45.460;9.240;2022-10-31T09:30:16;38.75;;;16.77;;
22851;SDS011;11592;45.460;9.240;2022-10-31T09:32:43;28.73;;;16.35;;
22851;SDS011;11592;45.460;9.240;2022-10-31T09:35:10;26.83;;;15.75;;
22851;SDS011;11592;45.460;9.240;2022-10-31T09:37:37;38.08;;;16.85;;
22851;SDS011;11592;45.460;9.240;2022-10-31T09:40:04;31.52;;;15.90;;
22851;SDS011;11592;45.460;9.240;2022-10-31T09:50:54;26.95;;;14.15;;
22851;SDS011;11592;45.460;9.240;2022-10-31T09:53:27;24.50;;;12.80;;
22851;SDS011;11592;45.460;9.240;2022-10-31T09:56:12;36.53;;;13.07;;
22851;SDS011;11592;45.460;9.240;2022-10-31T09:58:42;32.17;;;15.30;;
22851;SDS011;11592;45.460;9.240;2022-10-31T10:01:34;26.50;;;13.43;;
22851;SDS011;11592;45.460;9.240;2022-10-31T10:04:16;29.20;;;12.55;;
22851;SDS011;11592;45.460;9.240;2022-10-31T10:06:52;26.90;;;12.70;;
22851;SDS011;11592;45.460;9.240;2022-10-31T10:09:20;27.08;;;13.70;;
22851;SDS011;11592;45.460;9.240;2022-10-31T10:26:03;22.92;;;11.25;;
22851;SDS011;11592;45.460;9.240;2022-10-31T10:28:40;25.63;;;12.30;;
22851;SDS011;11592;45.460;9.240;2022-10-31T10:31:20;28.50;;;13.07;;
22851;SDS011;11592;45.460;9.240;2022-10-31T10:39:11;27.52;;;11.57;;
22851;SDS011;11592;45.460;9.240;2022-10-31T10:41:47;25.02;;;11.23;;
22851;SDS011;11592;45.460;9.240;2022-10-31T10:44:33;22.67;;;11.60;;
22851;SDS011;11592;45.460;9.240;2022-10-31T10:47:25;24.58;;;11.95;;
22851;SDS011;11592;45.460;9.240;2022-10-31T10:50:17;21.40;;;11.82;;
22851;SDS011;11592;45.460;9.240;2022-10-31T10:52:52;21.70;;;11.75;;
22851;SDS011;11592;45.460;9.240;2022-10-31T10:58:24;27.40;;;11.32;;
22851;SDS011;11592;45.460;9.240;2022-10-31T11:00:51;28.88;;;12.15;;
22851;SDS011;11592;45.460;9.240;2022-10-31T11:03:21;19.42;;;11.38;;
22851;SDS011;11592;45.460;9.240;2022-10-31T11:08:25;21.08;;;10.38;;
22851;SDS011;11592;45.460;9.240;2022-10-31T11:14:02;19.10;;;8.80;;
22851;SDS011;11592;45.460;9.240;2022-10-31T11:16:33;18.90;;;9.70;;
22851;SDS011;11592;45.460;9.240;2022-10-31T11:19:27;19.50;;;8.10;;
22851;SDS011;11592;45.460;9.240;2022-10-31T11:21:54;15.65;;;8.38;;
22851;SDS011;11592;45.460;9.240;2022-10-31T11:24:35;17.48;;;8.57;;
22851;SDS011;11592;45.460;9.240;2022-10-31T11:29:51;17.60;;;8.82;;
22851;SDS011;11592;45.460;9.240;2022-10-31T11:32:26;18.95;;;7.97;;
22851;SDS011;11592;45.460;9.240;2022-10-31T11:34:54;16.85;;;7.93;;
22851;SDS011;11592;45.460;9.240;2022-10-31T11:37:24;14.75;;;6.93;;
22851;SDS011;11592;45.460;9.240;2022-10-31T11:39:57;27.20;;;8.77;;
22851;SDS011;11592;45.460;9.240;2022-10-31T11:42:27;18.25;;;7.57;;
22851;SDS011;11592;45.460;9.240;2022-10-31T11:45:02;18.85;;;8.48;;
22851;SDS011;11592;45.460;9.240;2022-10-31T11:47:41;17.92;;;6.63;;
22851;SDS011;11592;45.460;9.240;2022-10-31T11:50:47;16.48;;;6.95;;
22851;SDS011;11592;45.460;9.240;2022-10-31T11:53:14;12.95;;;6.75;;
22851;SDS011;11592;45.460;9.240;2022-10-31T11:55:44;14.68;;;6.22;;
22851;SDS011;11592;45.460;9.240;2022-10-31T11:58:22;18.88;;;7.57;;
22851;SDS011;11592;45.460;9.240;2022-10-31T12:00:52;17.35;;;6.50;;
22851;SDS011;11592;45.460;9.240;2022-10-31T12:06:00;15.77;;;6.97;;
22851;SDS011;11592;45.460;9.240;2022-10-31T12:08:31;20.13;;;7.28;;
22851;SDS011;11592;45.460;9.240;2022-10-31T12:13:49;13.68;;;5.57;;
22851;SDS011;11592;45.460;9.240;2022-10-31T12:17:16;12.60;;;6.15;;
22851;SDS011;11592;45.460;9.240;2022-10-31T12:19:35;13.95;;;5.78;;
22851;SDS011;11592;45.460;9.240;2022-10-31T12:27:37;22.25;;;5.22;;
22851;SDS011;11592;45.460;9.240;2022-10-31T12:30:20;15.73;;;6.00;;
22851;SDS011;11592;45.460;9.240;2022-10-31T12:39:06;14.35;;;5.15;;
22851;SDS011;11592;45.460;9.240;2022-10-31T12:41:44;12.73;;;5.57;;
22851;SDS011;11592;45.460;9.240;2022-10-31T12:58:33;17.57;;;5.37;;
22851;SDS011;11592;45.460;9.240;2022-10-31T13:01:48;14.35;;;4.88;;
22851;SDS011;11592;45.460;9.240;2022-10-31T13:04:12;10.15;;;3.72;;
22851;SDS011;11592;45.460;9.240;2022-10-31T13:06:49;7.28;;;3.60;;
22851;SDS011;11592;45.460;9.240;2022-10-31T13:09:40;14.25;;;4.60;;
22851;SDS011;11592;45.460;9.240;2022-10-31T13:12:29;8.43;;;4.32;;
22851;SDS011;11592;45.460;9.240;2022-10-31T13:15:12;10.20;;;4.38;;
22851;SDS011;11592;45.460;9.240;2022-10-31T13:17:41;12.02;;;4.50;;
22851;SDS011;11592;45.460;9.240;2022-10-31T13:20:29;10.27;;;3.78;;
22851;SDS011;11592;45.460;9.240;2022-10-31T13:23:05;9.38;;;4.00;;
22851;SDS011;11592;45.460;9.240;2022-10-31T13:26:13;16.80;;;4.60;;
22851;SDS011;11592;45.460;9.240;2022-10-31T13:29:11;10.25;;;4.32;;
22851;SDS011;11592;45.460;9.240;2022-10-31T13:32:00;11.70;;;4.10;;
22851;SDS011;11592;45.460;9.240;2022-10-31T13:34:37;10.05;;;4.32;;
22851;SDS011;11592;45.460;9.240;2022-10-31T13:45:12;16.50;;;4.85;;
22851;SDS011;11592;45.460;9.240;2022-10-31T13:47:54;14.63;;;5.13;;
22851;SDS011;11592;45.460;9.240;2022-10-31T13:50:27;12.65;;;3.53;;
22851;SDS011;11592;45.460;9.240;2022-10-31T13:58:34;14.52;;;4.30;;
22851;SDS011;11592;45.460;9.240;2022-10-31T14:03:32;11.40;;;4.07;;
22851;SDS011;11592;45.460;9.240;2022-10-31T14:06:21;11.15;;;3.88;;
22851;SDS011;11592;45.460;9.240;2022-10-31T14:09:00;11.45;;;3.60;;
22851;SDS011;11592;45.460;9.240;2022-10-31T14:11:28;12.75;;;3.92;;
22851;SDS011;11592;45.460;9.240;2022-10-31T14:14:02;19.27;;;3.90;;
22851;SDS011;11592;45.460;9.240;2022-10-31T14:16:29;14.30;;;4.22;;
22851;SDS011;11592;45.460;9.240;2022-10-31T14:21:36;9.52;;;3.78;;
22851;SDS011;11592;45.460;9.240;2022-10-31T14:24:29;15.35;;;4.65;;
22851;SDS011;11592;45.460;9.240;2022-10-31T14:26:59;13.52;;;4.07;;
22851;SDS011;11592;45.460;9.240;2022-10-31T14:29:28;12.18;;;3.92;;
22851;SDS011;11592;45.460;9.240;2022-10-31T14:34:26;10.02;;;3.95;;
22851;SDS011;11592;45.460;9.240;2022-10-31T14:48:33;13.38;;;4.43;;
22851;SDS011;11592;45.460;9.240;2022-10-31T14:51:25;13.25;;;3.70;;
22851;SDS011;11592;45.460;9.240;2022-10-31T14:54:01;15.90;;;4.00;;
22851;SDS011;11592;45.460;9.240;2022-10-31T14:56:31;15.32;;;4.40;;
22851;SDS011;11592;45.460;9.240;2022-10-31T14:59:01;16.75;;;4.90;;
22851;SDS011;11592;45.460;9.240;2022-10-31T15:01:33;13.77;;;4.65;;
22851;SDS011;11592;45.460;9.240;2022-10-31T15:06:52;13.65;;;4.80;;
22851;SDS011;11592;45.460;9.240;2022-10-31T15:10:03;15.85;;;4.10;;
22851;SDS011;11592;45.460;9.240;2022-10-31T15:12:34;12.70;;;4.20;;
22851;SDS011;11592;45.460;9.240;2022-10-31T15:15:11;13.50;;;4.05;;
22851;SDS011;11592;45.460;9.240;2022-10-31T15:17:47;14.20;;;4.57;;
22851;SDS011;11592;45.460;9.240;2022-10-31T15:22:49;17.67;;;4.35;;
22851;SDS011;11592;45.460;9.240;2022-10-31T15:25:21;20.50;;;4.47;;
22851;SDS011;11592;45.460;9.240;2022-10-31T15:27:49;16.95;;;4.53;;
22851;SDS011;11592;45.460;9.240;2022-10-31T15:30:21;10.77;;;3.65;;
22851;SDS011;11592;45.460;9.240;2022-10-31T15:35:28;11.15;;;4.10;;
22851;SDS011;11592;45.460;9.240;2022-10-31T15:37:57;9.30;;;4.00;;
22851;SDS011;11592;45.460;9.240;2022-10-31T15:40:26;10.85;;;4.10;;
22851;SDS011;11592;45.460;9.240;2022-10-31T15:43:00;22.25;;;6.63;;
22851;SDS011;11592;45.460;9.240;2022-10-31T15:45:30;13.82;;;5.38;;
22851;SDS011;11592;45.460;9.240;2022-10-31T15:48:02;14.65;;;5.30;;
22851;SDS011;11592;45.460;9.240;2022-10-31T15:50:41;12.63;;;4.72;;
22851;SDS011;11592;45.460;9.240;2022-10-31T15:53:21;15.25;;;4.32;;
22851;SDS011;11592;45.460;9.240;2022-10-31T15:55:55;15.38;;;4.07;;
22851;SDS011;11592;45.460;9.240;2022-10-31T15:58:24;11.57;;;4.72;;
22851;SDS011;11592;45.460;9.240;2022-10-31T16:01:05;11.02;;;4.30;;
22851;SDS011;11592;45.460;9.240;2022-10-31T16:03:54;15.75;;;4.47;;
22851;SDS011;11592;45.460;9.240;2022-10-31T16:06:23;12.68;;;4.18;;
22851;SDS011;11592;45.460;9.240;2022-10-31T16:08:50;16.55;;;4.53;;
22851;SDS011;11592;45.460;9.240;2022-10-31T16:11:23;16.90;;;4.30;;
22851;SDS011;11592;45.460;9.240;2022-10-31T16:16:48;13.68;;;4.05;;
22851;SDS011;11592;45.460;9.240;2022-10-31T16:19:22;9.13;;;3.72;;
22851;SDS011;11592;45.460;9.240;2022-10-31T16:22:08;17.58;;;4.18;;
22851;SDS011;11592;45.460;9.240;2022-10-31T16:25:38;11.98;;;4.82;;
22851;SDS011;11592;45.460;9.240;2022-10-31T16:27:47;12.50;;;4.10;;
22851;SDS011;11592;45.460;9.240;2022-10-31T16:32:56;12.50;;;4.05;;
22851;SDS011;11592;45.460;9.240;2022-10-31T16:35:27;14.00;;;4.35;;
22851;SDS011;11592;45.460;9.240;2022-10-31T16:38:04;14.23;;;4.65;;
22851;SDS011;11592;45.460;9.240;2022-10-31T16:40:31;11.70;;;4.07;;
22851;SDS011;11592;45.460;9.240;2022-10-31T16:42:59;17.65;;;5.00;;
22851;SDS011;11592;45.460;9.240;2022-10-31T16:45:27;15.82;;;5.40;;
22851;SDS011;11592;45.460;9.240;2022-10-31T16:48:06;12.77;;;4.40;;
22851;SDS011;11592;45.460;9.240;2022-10-31T16:50:37;15.18;;;4.75;;
22851;SDS011;11592;45.460;9.240;2022-10-31T16:53:04;16.70;;;4.88;;
22851;SDS011;11592;45.460;9.240;2022-10-31T16:55:54;9.70;;;5.03;;
22851;SDS011;11592;45.460;9.240;2022-10-31T16:58:23;13.25;;;5.30;;
22851;SDS011;11592;45.460;9.240;2022-10-31T17:00:52;11.38;;;5.40;;
22851;SDS011;11592;45.460;9.240;2022-10-31T17:03:19;12.32;;;5.38;;
22851;SDS011;11592;45.460;9.240;2022-10-31T17:05:46;12.52;;;5.40;;
22851;SDS011;11592;45.460;9.240;2022-10-31T17:08:13;12.68;;;5.70;;
22851;SDS011;11592;45.460;9.240;2022-10-31T17:10:40;14.85;;;5.32;;
22851;SDS011;11592;45.460;9.240;2022-10-31T17:13:11;16.13;;;5.47;;
22851;SDS011;11592;45.460;9.240;2022-10-31T17:15:42;17.20;;;6.50;;
22851;SDS011;11592;45.460;9.240;2022-10-31T17:18:12;19.15;;;5.82;;
22851;SDS011;11592;45.460;9.240;2022-10-31T17:20:40;16.70;;;5.90;;
22851;SDS011;11592;45.460;9.240;2022-10-31T17:23:11;18.13;;;6.07;;
22851;SDS011;11592;45.460;9.240;2022-10-31T17:25:39;12.60;;;5.60;;
22851;SDS011;11592;45.460;9.240;2022-10-31T17:28:06;15.93;;;6.20;;